createdAt,value
2023-03-02T00:00:38.777Z,-1.98
2023-03-02T00:03:06.135Z,-2.03
2023-03-02T00:05:33.874Z,-2.18
2023-03-02T00:08:01.873Z,-2.27
2023-03-02T00:10:28.846Z,-2.34
2023-03-02T00:12:55.514Z,-2.43
2023-03-02T00:15:22.050Z,-2.37
2023-03-02T00:17:48.424Z,-2.24
2023-03-02T00:20:14.816Z,-2.31
2023-03-02T00:22:43.212Z,-2.45
2023-03-02T00:25:10.477Z,-2.49
2023-03-02T00:27:37.440Z,-2.39
2023-03-02T00:30:05.154Z,-2.41
2023-03-02T00:32:31.741Z,-2.36
2023-03-02T00:34:58.300Z,-2.36
2023-03-02T00:37:27.640Z,-2.46
2023-03-02T00:39:54.444Z,-2.39
2023-03-02T00:42:21.990Z,-2.48
2023-03-02T00:44:48.476Z,-2.46
2023-03-02T00:47:14.891Z,-2.51
2023-03-02T00:49:41.288Z,-2.33
2023-03-02T00:52:07.714Z,-2.43
2023-03-02T00:54:34.211Z,-2.55
2023-03-02T00:57:00.654Z,-2.52
2023-03-02T00:59:27.278Z,-2.41
2023-03-02T01:02:03.065Z,-2.39
2023-03-02T01:04:32.983Z,-2.28
2023-03-02T01:07:02.752Z,-2.46
2023-03-02T01:09:29.764Z,-2.60
2023-03-02T01:11:56.285Z,-2.59
2023-03-02T01:14:23.268Z,-2.54
2023-03-02T01:16:50.344Z,-2.50
2023-03-02T01:19:17.570Z,-2.57
2023-03-02T01:21:43.935Z,-2.52
2023-03-02T01:24:11.369Z,-2.54
2023-03-02T01:26:38.193Z,-2.67
2023-03-02T01:29:04.889Z,-2.56
2023-03-02T01:31:31.381Z,-2.48
2023-03-02T01:33:57.858Z,-2.55
2023-03-02T01:36:24.323Z,-2.73
2023-03-02T01:38:51.454Z,-2.70
2023-03-02T01:41:17.977Z,-2.73
2023-03-02T01:43:44.620Z,-2.68
2023-03-02T01:46:23.814Z,-2.64
2023-03-02T01:48:54.236Z,-2.66
2023-03-02T01:51:23.623Z,-2.83
2023-03-02T01:53:55.208Z,-2.61
2023-03-02T01:56:29.044Z,-2.65
2023-03-02T01:59:03.409Z,-2.68
2023-03-02T02:01:32.733Z,-2.91
2023-03-02T02:03:59.124Z,-3.05
2023-03-02T02:06:33.061Z,-3.04
2023-03-02T02:09:02.266Z,-3.10
2023-03-02T02:11:29.174Z,-3.03
2023-03-02T02:14:01.841Z,-3.12
2023-03-02T02:16:31.582Z,-2.99
2023-03-02T02:18:58.343Z,-3.04
2023-03-02T02:21:25.664Z,-3.04
2023-03-02T02:24:30.591Z,-2.98
2023-03-02T02:26:57.750Z,-2.83
2023-03-02T02:29:26.037Z,-2.63
2023-03-02T02:32:11.319Z,-2.65
2023-03-02T02:34:44.993Z,-2.69
2023-03-02T02:37:23.278Z,-2.73
2023-03-02T02:39:51.489Z,-2.91
2023-03-02T02:42:27.188Z,-2.93
2023-03-02T02:44:57.826Z,-2.97
2023-03-02T02:47:24.662Z,-3.07
2023-03-02T02:49:54.336Z,-2.91
2023-03-02T02:52:24.278Z,-2.78
2023-03-02T02:54:56.101Z,-2.92
2023-03-02T02:57:27.007Z,-3.08
2023-03-02T03:00:00.718Z,-3.18
2023-03-02T03:02:30.549Z,-3.23
2023-03-02T03:05:03.245Z,-3.25
2023-03-02T03:07:32.352Z,-3.24
2023-03-02T03:10:10.523Z,-3.13
2023-03-02T03:12:39.613Z,-3.10
2023-03-02T03:15:07.948Z,-3.11
2023-03-02T03:17:34.551Z,-3.27
2023-03-02T03:20:06.560Z,-3.35
2023-03-02T03:22:37.986Z,-3.38
2023-03-02T03:25:05.218Z,-3.43
2023-03-02T03:27:31.728Z,-3.38
2023-03-02T03:29:58.391Z,-3.37
2023-03-02T03:32:24.916Z,-3.36
2023-03-02T03:34:51.551Z,-3.42
2023-03-02T03:37:20.003Z,-3.37
2023-03-02T03:39:47.413Z,-3.29
2023-03-02T03:42:13.912Z,-3.31
2023-03-02T03:44:40.325Z,-3.34
2023-03-02T03:47:06.752Z,-3.51
2023-03-02T03:49:33.358Z,-3.54
2023-03-02T03:52:00.037Z,-3.63
2023-03-02T03:54:26.718Z,-3.59
2023-03-02T03:56:53.149Z,-3.52
2023-03-02T03:59:22.751Z,-3.35
2023-03-02T04:02:00.629Z,-3.36
2023-03-02T04:04:31.234Z,-3.24
2023-03-02T04:06:58.093Z,-3.22
2023-03-02T04:09:25.479Z,-3.27
2023-03-02T04:11:55.271Z,-3.30
2023-03-02T04:14:23.264Z,-3.38
2023-03-02T04:16:49.786Z,-3.38
2023-03-02T04:19:17.602Z,-3.33
2023-03-02T04:21:47.128Z,-3.27
2023-03-02T04:24:15.023Z,-3.36
2023-03-02T04:26:42.764Z,-3.43
2023-03-02T04:29:10.750Z,-3.28
2023-03-02T04:31:37.324Z,-3.18
2023-03-02T04:34:04.360Z,-3.22
2023-03-02T04:36:33.242Z,-3.42
2023-03-02T04:38:59.759Z,-3.45
2023-03-02T04:41:26.172Z,-3.32
2023-03-02T04:43:52.575Z,-3.34
2023-03-02T04:46:25.486Z,-3.31
2023-03-02T04:48:52.861Z,-3.33
2023-03-02T04:51:23.941Z,-3.32
2023-03-02T04:54:03.145Z,-3.21
2023-03-02T04:56:29.979Z,-3.38
2023-03-02T04:58:57.101Z,-3.37
2023-03-02T05:01:24.352Z,-3.47
2023-03-02T05:03:50.866Z,-3.44
2023-03-02T05:06:17.511Z,-3.52
2023-03-02T05:08:45.099Z,-3.55
2023-03-02T05:11:22.272Z,-3.62
2023-03-02T05:13:50.786Z,-3.64
2023-03-02T05:16:17.673Z,-3.52
2023-03-02T05:18:44.257Z,-3.46
2023-03-02T05:21:10.781Z,-3.48
2023-03-02T05:23:37.418Z,-3.50
2023-03-02T05:26:04.259Z,-3.49
2023-03-02T05:28:30.706Z,-3.47
2023-03-02T05:30:57.185Z,-3.57
2023-03-02T05:33:23.606Z,-3.59
2023-03-02T05:35:50.152Z,-3.68
2023-03-02T05:38:17.360Z,-3.73
2023-03-02T05:40:44.230Z,-3.66
2023-03-02T05:43:14.692Z,-3.66
2023-03-02T05:45:41.201Z,-3.61
2023-03-02T05:48:08.129Z,-3.63
2023-03-02T05:50:34.504Z,-3.77
2023-03-02T05:53:02.382Z,-3.81
2023-03-02T05:55:29.260Z,-3.81
2023-03-02T05:57:56.249Z,-3.72
2023-03-02T06:00:23.434Z,-3.60
2023-03-02T06:02:49.889Z,-3.74
2023-03-02T06:05:18.529Z,-3.81
2023-03-02T06:07:45.326Z,-3.74
2023-03-02T06:10:13.244Z,-3.76
2023-03-02T06:12:40.969Z,-3.65
2023-03-02T06:15:07.873Z,-3.73
2023-03-02T06:17:34.940Z,-3.74
2023-03-02T06:20:01.386Z,-3.63
2023-03-02T06:22:27.872Z,-3.75
2023-03-02T06:24:55.226Z,-3.74
2023-03-02T06:27:21.677Z,-3.61
2023-03-02T06:29:48.106Z,-3.57
2023-03-02T06:32:14.549Z,-3.60
2023-03-02T06:34:41.005Z,-3.61
2023-03-02T06:37:07.424Z,-3.53
2023-03-02T06:39:34.221Z,-3.32
2023-03-02T06:42:00.949Z,-3.31
2023-03-02T06:44:27.378Z,-3.43
2023-03-02T06:46:53.771Z,-3.45
2023-03-02T06:49:20.209Z,-3.39
2023-03-02T06:51:46.635Z,-3.23
2023-03-02T06:54:13.658Z,-3.21
2023-03-02T06:56:41.080Z,-3.34
2023-03-02T06:59:07.693Z,-3.38
2023-03-02T07:01:36.251Z,-3.35
2023-03-02T07:04:03.535Z,-3.17
2023-03-02T07:06:30.047Z,-3.23
2023-03-02T07:08:56.443Z,-3.13
2023-03-02T07:11:23.162Z,-3.28
2023-03-02T07:13:49.941Z,-3.28
2023-03-02T07:16:17.639Z,-3.16
2023-03-02T07:18:44.404Z,-2.99
2023-03-02T07:21:10.868Z,-3.01
2023-03-02T07:23:37.563Z,-2.89
2023-03-02T07:26:08.348Z,-2.85
2023-03-02T07:28:41.689Z,-2.93
2023-03-02T07:31:08.877Z,-3.01
2023-03-02T07:33:37.122Z,-3.07
2023-03-02T07:36:03.987Z,-2.84
2023-03-02T07:38:30.478Z,-2.77
2023-03-02T07:40:56.907Z,-2.79
2023-03-02T07:43:28.640Z,-2.69
2023-03-02T07:45:55.130Z,-2.64
2023-03-02T07:48:23.302Z,-2.46
2023-03-02T07:50:49.746Z,-2.29
2023-03-02T07:53:16.301Z,-2.29
2023-03-02T07:55:42.753Z,-2.45
2023-03-02T07:58:09.230Z,-2.50
2023-03-02T08:00:36.618Z,-2.47
2023-03-02T08:03:03.769Z,-2.36
2023-03-02T08:05:30.598Z,-2.43
2023-03-02T08:07:56.980Z,-2.24
2023-03-02T08:10:23.396Z,-2.35
2023-03-02T08:12:49.846Z,-2.20
2023-03-02T08:15:19.343Z,-1.97
2023-03-02T08:17:46.151Z,-1.84
2023-03-02T08:20:12.773Z,-1.81
2023-03-02T08:22:39.333Z,-1.74
2023-03-02T08:25:07.394Z,-1.67
2023-03-02T08:27:33.962Z,-1.61
2023-03-02T08:30:00.484Z,-1.43
2023-03-02T08:32:27.218Z,-1.48
2023-03-02T08:34:53.833Z,-1.54
2023-03-02T08:37:20.318Z,-1.31
2023-03-02T08:39:47.101Z,-1.27
2023-03-02T08:42:15.164Z,-0.96
2023-03-02T08:44:42.182Z,-0.06
2023-03-02T08:47:08.643Z,0.90
2023-03-02T08:49:36.786Z,0.37
2023-03-02T08:52:06.614Z,0.12
2023-03-02T08:54:40.913Z,-0.06
2023-03-02T08:57:11.538Z,0.54
2023-03-02T08:59:38.227Z,0.56
2023-03-02T09:02:04.916Z,0.88
2023-03-02T09:04:31.553Z,0.96
2023-03-02T09:06:58.412Z,0.97
2023-03-02T09:09:26.177Z,0.99
2023-03-02T09:11:52.695Z,0.80
2023-03-02T09:17:06.409Z,0.75
2023-03-02T09:19:43.270Z,0.69
2023-03-02T09:22:10.839Z,1.09
2023-03-02T09:24:37.252Z,1.29
2023-03-02T09:27:04.395Z,1.06
2023-03-02T09:29:30.751Z,0.98
2023-03-02T09:31:57.225Z,1.49
2023-03-02T09:34:23.835Z,1.53
2023-03-02T09:36:50.209Z,1.41
2023-03-02T09:39:17.741Z,1.40
2023-03-02T09:42:14.606Z,1.58
2023-03-02T09:45:10.006Z,1.87
2023-03-02T09:48:03.684Z,2.09
2023-03-02T09:50:37.021Z,3.02
2023-03-02T09:53:18.542Z,4.43
2023-03-02T09:55:47.312Z,4.56
2023-03-02T09:58:20.432Z,4.57
2023-03-02T10:00:47.916Z,4.58
2023-03-02T10:03:21.945Z,3.93
2023-03-02T10:05:51.094Z,4.00
2023-03-02T10:08:27.114Z,4.89
2023-03-02T10:11:02.376Z,5.92
2023-03-02T10:13:36.040Z,6.29
2023-03-02T10:16:02.597Z,7.52
2023-03-02T10:19:05.374Z,9.78
2023-03-02T10:21:39.425Z,9.50
2023-03-02T10:24:16.462Z,7.86
2023-03-02T10:26:47.686Z,8.06
2023-03-02T10:29:38.708Z,8.80
2023-03-02T10:32:33.060Z,8.07
2023-03-02T10:35:10.137Z,8.34
2023-03-02T10:37:36.893Z,8.91
2023-03-02T10:40:03.444Z,7.10
2023-03-02T10:42:36.672Z,6.58
2023-03-02T10:45:18.867Z,6.92
2023-03-02T10:47:45.910Z,6.87
2023-03-02T10:50:23.008Z,7.84
2023-03-02T10:52:59.511Z,8.73
2023-03-02T10:55:27.416Z,9.07
2023-03-02T10:58:12.716Z,9.56
2023-03-02T11:00:39.199Z,10.62
2023-03-02T11:03:21.111Z,13.22
2023-03-02T11:05:47.757Z,13.99
2023-03-02T11:08:20.952Z,14.67
2023-03-02T11:11:00.738Z,14.87
2023-03-02T11:13:36.171Z,15.24
2023-03-02T11:16:17.909Z,14.95
2023-03-02T11:18:52.613Z,14.17
2023-03-02T11:21:27.430Z,13.74
2023-03-02T11:24:15.153Z,14.29
2023-03-02T11:26:50.334Z,13.05
2023-03-02T11:29:35.313Z,13.01
2023-03-02T11:32:25.373Z,14.05
2023-03-02T11:34:56.256Z,13.37
2023-03-02T11:37:42.620Z,14.18
2023-03-02T11:40:21.232Z,14.36
2023-03-02T11:42:48.550Z,13.76
2023-03-02T11:45:15.433Z,14.84
2023-03-02T11:47:54.190Z,14.72
2023-03-02T11:50:25.576Z,14.47
2023-03-02T11:52:58.201Z,13.94
2023-03-02T11:55:27.892Z,14.54
2023-03-02T12:00:41.500Z,14.20
2023-03-02T12:03:17.329Z,15.35
2023-03-02T12:05:47.095Z,15.63
2023-03-02T12:08:19.780Z,16.13
2023-03-02T12:10:56.921Z,16.11
2023-03-02T12:13:30.698Z,16.49
2023-03-02T12:15:57.310Z,16.67
2023-03-02T12:18:24.710Z,15.12
2023-03-02T12:21:09.625Z,16.01
2023-03-02T12:23:41.985Z,15.72
2023-03-02T12:26:27.289Z,16.18
2023-03-02T12:29:23.059Z,15.50
2023-03-02T12:31:54.257Z,15.98
2023-03-02T12:34:31.397Z,14.82
2023-03-02T12:37:04.406Z,14.75
2023-03-02T12:39:54.487Z,14.04
2023-03-02T12:42:58.891Z,14.07
2023-03-02T12:45:54.525Z,13.03
2023-03-02T12:48:27.986Z,12.39
2023-03-02T12:51:00.627Z,11.88
2023-03-02T12:53:29.162Z,11.96
2023-03-02T12:55:56.026Z,11.90
2023-03-02T12:58:28.040Z,12.05
2023-03-02T13:01:00.126Z,11.70
2023-03-02T13:03:29.020Z,11.86
2023-03-02T13:06:13.980Z,11.76
2023-03-02T13:08:44.657Z,11.81
2023-03-02T13:11:12.053Z,11.71
2023-03-02T13:13:41.852Z,11.18
2023-03-02T13:16:22.828Z,11.85
2023-03-02T13:18:55.294Z,12.03
2023-03-02T13:21:24.880Z,12.45
2023-03-02T13:23:51.910Z,12.07
2023-03-02T13:26:29.902Z,11.81
2023-03-02T13:29:19.129Z,11.78
2023-03-02T13:31:45.723Z,12.20
2023-03-02T13:34:38.644Z,12.30
2023-03-02T13:37:40.422Z,12.01
2023-03-02T13:40:26.858Z,12.28
2023-03-02T13:42:54.447Z,12.58
2023-03-02T13:45:28.620Z,12.59
2023-03-02T13:47:57.828Z,12.60
2023-03-02T13:50:30.157Z,12.68
2023-03-02T13:52:58.741Z,12.67
2023-03-02T13:55:26.427Z,13.01
2023-03-02T13:57:54.094Z,12.77
2023-03-02T14:00:25.326Z,12.52
2023-03-02T14:02:52.261Z,12.62
2023-03-02T14:05:25.310Z,12.46
2023-03-02T14:07:52.714Z,12.30
2023-03-02T14:10:20.827Z,12.46
2023-03-02T14:12:58.226Z,12.54
2023-03-02T14:15:24.803Z,12.29
2023-03-02T14:17:51.527Z,12.49
2023-03-02T14:20:19.676Z,12.30
2023-03-02T14:22:48.018Z,12.39
2023-03-02T14:25:14.717Z,12.60
2023-03-02T14:27:43.921Z,12.84
2023-03-02T14:30:21.381Z,12.53
2023-03-02T14:32:48.247Z,12.71
2023-03-02T14:35:16.513Z,12.51
2023-03-02T14:37:47.287Z,12.02
2023-03-02T14:40:22.927Z,12.30
2023-03-02T14:42:51.745Z,12.46
2023-03-02T14:45:18.673Z,12.61
2023-03-02T14:47:46.815Z,12.57
2023-03-02T14:50:13.670Z,11.88
2023-03-02T14:52:57.992Z,11.89
2023-03-02T14:55:27.573Z,12.10
2023-03-02T14:58:02.845Z,11.90
2023-03-02T15:00:29.560Z,11.88
2023-03-02T15:02:56.324Z,11.97
2023-03-02T15:05:22.945Z,11.91
2023-03-02T15:07:50.284Z,12.18
2023-03-02T15:10:20.678Z,12.10
2023-03-02T15:12:47.475Z,12.01
2023-03-02T15:15:13.922Z,11.82
2023-03-02T15:17:41.600Z,11.81
2023-03-02T15:20:13.180Z,11.59
2023-03-02T15:22:39.647Z,11.20
2023-03-02T15:25:06.298Z,11.59
2023-03-02T15:27:32.719Z,11.45
2023-03-02T15:29:59.107Z,11.45
2023-03-02T15:32:26.390Z,11.32
2023-03-02T15:34:52.868Z,11.53
2023-03-02T15:37:19.320Z,11.36
2023-03-02T15:39:46.023Z,11.51
2023-03-02T15:42:13.888Z,11.39
2023-03-02T15:44:40.647Z,11.44
2023-03-02T15:47:07.133Z,11.42
2023-03-02T15:49:33.558Z,11.52
2023-03-02T15:52:00.159Z,11.55
2023-03-02T15:54:28.537Z,11.16
2023-03-02T15:56:55.291Z,11.16
2023-03-02T15:59:24.572Z,11.34
2023-03-02T16:01:51.839Z,11.45
2023-03-02T16:04:18.448Z,11.21
2023-03-02T16:06:45.224Z,11.29
2023-03-02T16:09:11.991Z,11.21
2023-03-02T16:11:38.411Z,11.19
2023-03-02T16:14:04.938Z,11.15
2023-03-02T16:16:31.591Z,10.91
2023-03-02T16:18:59.077Z,11.00
2023-03-02T16:21:28.303Z,11.04
2023-03-02T16:23:56.309Z,11.12
2023-03-02T16:26:22.988Z,10.93
2023-03-02T16:28:49.530Z,10.97
2023-03-02T16:31:18.579Z,10.85
2023-03-02T16:33:46.398Z,10.81
2023-03-02T16:36:13.429Z,10.52
2023-03-02T16:38:40.322Z,10.23
2023-03-02T16:41:12.142Z,10.01
2023-03-02T16:43:44.729Z,9.76
2023-03-02T16:46:11.269Z,9.56
2023-03-02T16:48:37.855Z,9.31
2023-03-02T16:51:04.865Z,8.99
2023-03-02T16:53:31.464Z,8.82
2023-03-02T16:55:57.957Z,8.64
2023-03-02T16:58:25.040Z,8.54
2023-03-02T17:00:51.637Z,8.19
2023-03-02T17:03:18.194Z,7.44
2023-03-02T17:05:44.952Z,7.17
2023-03-02T17:08:14.926Z,6.83
2023-03-02T17:10:42.290Z,6.66
2023-03-02T17:13:09.561Z,6.93
2023-03-02T17:15:36.004Z,6.83
2023-03-02T17:18:02.984Z,6.71
2023-03-02T17:20:29.367Z,6.51
2023-03-02T17:22:55.858Z,6.31
2023-03-02T17:25:22.442Z,6.32
2023-03-02T17:27:48.930Z,6.18
2023-03-02T17:30:15.881Z,6.19
2023-03-02T17:32:42.519Z,6.10
2023-03-02T17:35:11.705Z,5.54
2023-03-02T17:37:38.748Z,5.71
2023-03-02T17:40:05.833Z,5.77
2023-03-02T17:42:32.683Z,5.78
2023-03-02T17:44:59.540Z,5.58
2023-03-02T17:47:26.168Z,5.49
2023-03-02T17:49:52.597Z,5.38
2023-03-02T17:52:19.457Z,5.34
2023-03-02T17:54:46.033Z,5.03
2023-03-02T17:57:12.668Z,5.13
2023-03-02T17:59:39.238Z,5.05
2023-03-02T18:02:05.625Z,5.13
2023-03-02T18:04:32.182Z,5.07
2023-03-02T18:06:58.845Z,5.07
2023-03-02T18:09:25.399Z,4.53
2023-03-02T18:11:52.072Z,4.34
2023-03-02T18:14:20.143Z,4.16
2023-03-02T18:16:47.626Z,4.09
2023-03-02T18:19:14.096Z,3.73
2023-03-02T18:21:41.740Z,3.73
2023-03-02T18:24:09.042Z,3.97
2023-03-02T18:26:35.468Z,4.14
2023-03-02T18:29:02.095Z,4.11
2023-03-02T18:31:28.835Z,4.21
2023-03-02T18:33:55.274Z,3.94
2023-03-02T18:36:22.092Z,3.82
2023-03-02T18:38:48.553Z,3.52
2023-03-02T18:41:15.142Z,3.37
2023-03-02T18:43:43.266Z,3.32
2023-03-02T18:46:19.094Z,3.15
2023-03-02T18:48:45.507Z,2.99
2023-03-02T18:51:11.855Z,2.93
2023-03-02T18:53:38.412Z,3.28
2023-03-02T18:56:05.414Z,3.30
2023-03-02T18:58:34.096Z,3.05
2023-03-02T19:01:01.813Z,3.05
2023-03-02T19:03:28.380Z,2.78
2023-03-02T19:05:57.863Z,2.93
2023-03-02T19:08:25.451Z,3.10
2023-03-02T19:10:55.366Z,3.08
2023-03-02T19:13:21.824Z,2.92
2023-03-02T19:15:48.266Z,2.92
2023-03-02T19:18:19.900Z,2.99
2023-03-02T19:20:47.401Z,2.87
2023-03-02T19:23:14.297Z,2.51
2023-03-02T19:25:40.731Z,2.30
2023-03-02T19:28:07.714Z,2.17
2023-03-02T19:30:34.708Z,2.01
2023-03-02T19:33:01.783Z,2.08
2023-03-02T19:35:29.486Z,1.92
2023-03-02T19:37:56.616Z,1.72
2023-03-02T19:40:24.672Z,1.56
2023-03-02T19:42:52.346Z,1.51
2023-03-02T19:45:28.487Z,1.98
2023-03-02T19:47:57.672Z,2.19
2023-03-02T19:50:25.827Z,2.10
2023-03-02T19:52:54.698Z,1.83
2023-03-02T19:55:22.163Z,1.80
2023-03-02T19:57:59.457Z,1.72
2023-03-02T20:00:28.283Z,1.48
2023-03-02T20:02:55.129Z,1.36
2023-03-02T20:05:21.705Z,1.36
2023-03-02T20:07:48.173Z,1.34
2023-03-02T20:10:35.704Z,1.84
2023-03-02T20:13:03.501Z,1.85
2023-03-02T20:15:32.139Z,1.56
2023-03-02T20:17:59.409Z,1.30
2023-03-02T20:20:26.917Z,1.06
2023-03-02T20:22:53.810Z,1.02
2023-03-02T20:25:21.218Z,1.41
2023-03-02T20:27:49.060Z,1.19
2023-03-02T20:30:23.289Z,1.08
2023-03-02T20:32:50.411Z,1.37
2023-03-02T20:35:16.904Z,1.41
2023-03-02T20:37:44.111Z,1.07
2023-03-02T20:40:11.580Z,0.79
2023-03-02T20:42:39.882Z,0.79
2023-03-02T20:45:07.530Z,0.95
2023-03-02T20:47:34.399Z,0.75
2023-03-02T20:50:01.935Z,0.61
2023-03-02T20:52:28.582Z,0.52
2023-03-02T20:54:55.157Z,0.70
2023-03-02T20:57:22.310Z,0.60
2023-03-02T20:59:49.487Z,0.49
2023-03-02T21:02:17.410Z,0.51
2023-03-02T21:04:44.079Z,0.75
2023-03-02T21:07:11.136Z,1.00
2023-03-02T21:09:37.886Z,1.08
2023-03-02T21:12:05.411Z,0.85
2023-03-02T21:14:33.194Z,0.86
2023-03-02T21:17:00.651Z,0.65
2023-03-02T21:19:29.464Z,0.51
2023-03-02T21:21:57.276Z,0.42
2023-03-02T21:24:24.273Z,0.29
2023-03-02T21:26:53.488Z,0.23
2023-03-02T21:29:24.097Z,0.13
2023-03-02T21:31:51.208Z,0.10
2023-03-02T21:34:18.857Z,0.16
2023-03-02T21:36:46.124Z,0.15
2023-03-02T21:39:12.736Z,0.05
2023-03-02T21:41:40.135Z,0.19
2023-03-02T21:44:06.669Z,0.22
2023-03-02T21:46:35.308Z,0.23
2023-03-02T21:49:02.168Z,0.34
2023-03-02T21:51:28.677Z,0.33
2023-03-02T21:53:55.068Z,0.15
2023-03-02T21:56:24.051Z,0.02
2023-03-02T21:58:54.363Z,-0.03
2023-03-02T22:01:21.346Z,-0.01
2023-03-02T22:03:48.055Z,-0.09
2023-03-02T22:06:23.968Z,-0.14
2023-03-02T22:08:51.123Z,-0.28
2023-03-02T22:11:22.590Z,-0.28
2023-03-02T22:13:50.955Z,-0.13
2023-03-02T22:16:35.583Z,-0.20
2023-03-02T22:19:06.581Z,-0.25
2023-03-02T22:21:54.367Z,0.23
2023-03-02T22:24:29.037Z,0.34
2023-03-02T22:27:00.112Z,0.28
2023-03-02T22:29:40.605Z,-0.01
2023-03-02T22:32:18.524Z,-0.02
2023-03-02T22:34:47.535Z,-0.28
2023-03-02T22:37:38.681Z,-0.54
2023-03-02T22:40:31.453Z,-0.51
2023-03-02T22:43:31.255Z,-0.67
2023-03-02T22:46:09.684Z,-0.81
2023-03-02T22:48:37.504Z,-0.92
2023-03-02T22:51:30.941Z,-0.91
2023-03-02T22:53:59.792Z,-0.92
2023-03-02T22:56:38.514Z,-0.80
2023-03-02T22:59:17.220Z,-0.95
2023-03-02T23:01:44.855Z,-1.03
2023-03-02T23:04:25.738Z,-1.01
2023-03-02T23:07:00.726Z,-0.99
2023-03-02T23:09:33.013Z,-1.06
2023-03-02T23:12:04.959Z,-0.91
2023-03-02T23:14:49.938Z,-0.76
2023-03-02T23:17:34.199Z,-0.70
2023-03-02T23:20:01.147Z,-0.87
2023-03-02T23:22:29.724Z,-0.93
2023-03-02T23:24:56.764Z,-0.98
2023-03-02T23:27:24.294Z,-1.13
2023-03-02T23:29:52.926Z,-1.04
2023-03-02T23:32:19.781Z,-1.05
2023-03-02T23:34:46.828Z,-0.99
2023-03-02T23:37:16.820Z,-0.94
2023-03-02T23:39:46.076Z,-1.01
2023-03-02T23:42:12.599Z,-1.08
2023-03-02T23:44:39.078Z,-1.25
2023-03-02T23:47:05.459Z,-1.18
2023-03-02T23:49:32.192Z,-1.22
2023-03-02T23:51:58.805Z,-1.23
2023-03-02T23:54:25.200Z,-1.12
2023-03-02T23:56:51.731Z,-1.10
2023-03-02T23:59:18.100Z,-1.23
